sensor_id;sensor_type;location;lat;lon;timestamp;P1;durP1;ratioP1;P2;durP2;ratioP2
19179;SDS011;9722;48.754;8.868;2023-07-13T00:01:26;2.37;;;1.00;;
19179;SDS011;9722;48.754;8.868;2023-07-13T00:04:47;2.30;;;0.80;;
19179;SDS011;9722;48.754;8.868;2023-07-13T00:08:07;1.77;;;0.90;;
19179;SDS011;9722;48.754;8.868;2023-07-13T00:11:28;2.67;;;0.90;;
19179;SDS011;9722;48.754;8.868;2023-07-13T00:14:50;2.90;;;0.90;;
19179;SDS011;9722;48.754;8.868;2023-07-13T00:18:10;3.33;;;1.00;;
19179;SDS011;9722;48.754;8.868;2023-07-13T00:21:31;2.07;;;0.70;;
19179;SDS011;9722;48.754;8.868;2023-07-13T00:24:52;4.47;;;1.30;;
19179;SDS011;9722;48.754;8.868;2023-07-13T00:28:15;1.13;;;0.70;;
19179;SDS011;9722;48.754;8.868;2023-07-13T00:31:36;1.70;;;0.70;;
19179;SDS011;9722;48.754;8.868;2023-07-13T00:34:57;1.40;;;0.80;;
19179;SDS011;9722;48.754;8.868;2023-07-13T00:38:20;3.77;;;1.00;;
19179;SDS011;9722;48.754;8.868;2023-07-13T00:41:41;1.90;;;0.90;;
19179;SDS011;9722;48.754;8.868;2023-07-13T00:48:27;1.13;;;1.00;;
19179;SDS011;9722;48.754;8.868;2023-07-13T00:51:55;2.40;;;0.80;;
19179;SDS011;9722;48.754;8.868;2023-07-13T00:55:19;2.73;;;1.00;;
19179;SDS011;9722;48.754;8.868;2023-07-13T00:58:42;0.97;;;0.70;;
19179;SDS011;9722;48.754;8.868;2023-07-13T01:02:03;1.73;;;0.90;;
19179;SDS011;9722;48.754;8.868;2023-07-13T01:05:24;3.10;;;1.20;;
19179;SDS011;9722;48.754;8.868;2023-07-13T01:08:45;2.23;;;0.93;;
19179;SDS011;9722;48.754;8.868;2023-07-13T01:12:06;3.83;;;0.90;;
19179;SDS011;9722;48.754;8.868;2023-07-13T01:15:43;5.97;;;0.90;;
19179;SDS011;9722;48.754;8.868;2023-07-13T01:19:09;1.33;;;1.07;;
19179;SDS011;9722;48.754;8.868;2023-07-13T01:22:55;2.00;;;1.03;;
19179;SDS011;9722;48.754;8.868;2023-07-13T01:26:16;0.90;;;0.77;;
19179;SDS011;9722;48.754;8.868;2023-07-13T01:29:37;2.73;;;0.90;;
19179;SDS011;9722;48.754;8.868;2023-07-13T01:33:07;3.77;;;1.17;;
19179;SDS011;9722;48.754;8.868;2023-07-13T01:36:29;0.93;;;0.80;;
19179;SDS011;9722;48.754;8.868;2023-07-13T01:39:50;1.67;;;0.83;;
19179;SDS011;9722;48.754;8.868;2023-07-13T01:43:10;2.70;;;1.10;;
19179;SDS011;9722;48.754;8.868;2023-07-13T01:46:31;1.30;;;0.70;;
19179;SDS011;9722;48.754;8.868;2023-07-13T01:49:51;4.60;;;0.80;;
19179;SDS011;9722;48.754;8.868;2023-07-13T01:53:12;1.13;;;0.87;;
19179;SDS011;9722;48.754;8.868;2023-07-13T01:56:32;2.07;;;0.90;;
19179;SDS011;9722;48.754;8.868;2023-07-13T01:59:53;1.47;;;1.00;;
19179;SDS011;9722;48.754;8.868;2023-07-13T02:03:14;1.27;;;1.03;;
19179;SDS011;9722;48.754;8.868;2023-07-13T02:06:37;1.57;;;1.00;;
19179;SDS011;9722;48.754;8.868;2023-07-13T02:09:58;2.23;;;0.83;;
19179;SDS011;9722;48.754;8.868;2023-07-13T02:13:18;4.67;;;1.07;;
19179;SDS011;9722;48.754;8.868;2023-07-13T02:16:39;2.57;;;1.20;;
19179;SDS011;9722;48.754;8.868;2023-07-13T02:20:00;2.37;;;1.03;;
19179;SDS011;9722;48.754;8.868;2023-07-13T02:23:20;3.03;;;1.00;;
19179;SDS011;9722;48.754;8.868;2023-07-13T02:26:41;2.03;;;1.00;;
19179;SDS011;9722;48.754;8.868;2023-07-13T02:30:01;3.33;;;1.20;;
19179;SDS011;9722;48.754;8.868;2023-07-13T02:33:23;2.77;;;1.00;;
19179;SDS011;9722;48.754;8.868;2023-07-13T02:36:43;1.10;;;1.00;;
19179;SDS011;9722;48.754;8.868;2023-07-13T02:40:04;3.50;;;1.10;;
19179;SDS011;9722;48.754;8.868;2023-07-13T02:43:28;2.10;;;1.27;;
19179;SDS011;9722;48.754;8.868;2023-07-13T02:46:49;0.97;;;0.80;;
19179;SDS011;9722;48.754;8.868;2023-07-13T02:50:10;3.60;;;1.03;;
19179;SDS011;9722;48.754;8.868;2023-07-13T02:53:30;3.13;;;1.10;;
19179;SDS011;9722;48.754;8.868;2023-07-13T02:56:51;2.37;;;1.07;;
19179;SDS011;9722;48.754;8.868;2023-07-13T03:00:11;1.47;;;0.80;;
19179;SDS011;9722;48.754;8.868;2023-07-13T03:03:32;1.60;;;1.00;;
19179;SDS011;9722;48.754;8.868;2023-07-13T03:06:52;2.50;;;1.07;;
19179;SDS011;9722;48.754;8.868;2023-07-13T03:10:17;1.10;;;1.00;;
19179;SDS011;9722;48.754;8.868;2023-07-13T03:13:39;2.20;;;1.10;;
19179;SDS011;9722;48.754;8.868;2023-07-13T03:17:00;1.20;;;1.00;;
19179;SDS011;9722;48.754;8.868;2023-07-13T03:20:20;2.17;;;1.27;;
19179;SDS011;9722;48.754;8.868;2023-07-13T03:23:41;2.17;;;1.17;;
19179;SDS011;9722;48.754;8.868;2023-07-13T03:27:03;1.27;;;0.90;;
19179;SDS011;9722;48.754;8.868;2023-07-13T03:30:24;1.33;;;1.10;;
19179;SDS011;9722;48.754;8.868;2023-07-13T03:33:44;1.90;;;1.33;;
19179;SDS011;9722;48.754;8.868;2023-07-13T03:37:05;1.17;;;1.00;;
19179;SDS011;9722;48.754;8.868;2023-07-13T03:40:26;2.27;;;1.40;;
19179;SDS011;9722;48.754;8.868;2023-07-13T03:43:47;4.03;;;1.20;;
19179;SDS011;9722;48.754;8.868;2023-07-13T03:47:08;4.00;;;1.30;;
19179;SDS011;9722;48.754;8.868;2023-07-13T03:50:29;2.17;;;1.00;;
19179;SDS011;9722;48.754;8.868;2023-07-13T03:53:49;4.83;;;1.40;;
19179;SDS011;9722;48.754;8.868;2023-07-13T03:57:10;1.70;;;1.10;;
19179;SDS011;9722;48.754;8.868;2023-07-13T04:00:31;1.80;;;1.17;;
19179;SDS011;9722;48.754;8.868;2023-07-13T04:03:51;3.33;;;1.40;;
19179;SDS011;9722;48.754;8.868;2023-07-13T04:07:12;2.00;;;1.50;;
19179;SDS011;9722;48.754;8.868;2023-07-13T04:10:33;1.20;;;1.13;;
19179;SDS011;9722;48.754;8.868;2023-07-13T04:13:53;4.10;;;1.20;;
19179;SDS011;9722;48.754;8.868;2023-07-13T04:17:14;2.90;;;1.20;;
19179;SDS011;9722;48.754;8.868;2023-07-13T04:20:35;2.53;;;1.37;;
19179;SDS011;9722;48.754;8.868;2023-07-13T04:23:55;2.27;;;1.80;;
19179;SDS011;9722;48.754;8.868;2023-07-13T04:27:16;3.10;;;1.63;;
19179;SDS011;9722;48.754;8.868;2023-07-13T04:30:37;1.93;;;1.23;;
19179;SDS011;9722;48.754;8.868;2023-07-13T04:33:57;2.50;;;1.33;;
19179;SDS011;9722;48.754;8.868;2023-07-13T04:37:19;1.93;;;1.13;;
19179;SDS011;9722;48.754;8.868;2023-07-13T04:40:40;4.47;;;1.37;;
19179;SDS011;9722;48.754;8.868;2023-07-13T04:44:04;1.40;;;1.30;;
19179;SDS011;9722;48.754;8.868;2023-07-13T04:47:25;1.50;;;1.33;;
19179;SDS011;9722;48.754;8.868;2023-07-13T04:50:46;2.90;;;1.30;;
19179;SDS011;9722;48.754;8.868;2023-07-13T04:54:06;2.10;;;1.30;;
19179;SDS011;9722;48.754;8.868;2023-07-13T04:57:27;3.40;;;1.70;;
19179;SDS011;9722;48.754;8.868;2023-07-13T05:00:48;1.93;;;1.43;;
19179;SDS011;9722;48.754;8.868;2023-07-13T05:04:09;3.17;;;1.10;;
19179;SDS011;9722;48.754;8.868;2023-07-13T05:07:30;3.20;;;1.40;;
19179;SDS011;9722;48.754;8.868;2023-07-13T05:10:52;1.50;;;1.40;;
19179;SDS011;9722;48.754;8.868;2023-07-13T05:14:13;2.00;;;1.53;;
19179;SDS011;9722;48.754;8.868;2023-07-13T05:17:35;1.67;;;1.30;;
19179;SDS011;9722;48.754;8.868;2023-07-13T05:20:59;2.93;;;1.13;;
19179;SDS011;9722;48.754;8.868;2023-07-13T05:24:24;2.50;;;1.30;;
19179;SDS011;9722;48.754;8.868;2023-07-13T05:27:45;1.73;;;1.30;;
19179;SDS011;9722;48.754;8.868;2023-07-13T05:31:07;1.93;;;1.40;;
19179;SDS011;9722;48.754;8.868;2023-07-13T05:34:28;1.47;;;1.33;;
19179;SDS011;9722;48.754;8.868;2023-07-13T05:37:49;1.77;;;1.30;;
19179;SDS011;9722;48.754;8.868;2023-07-13T05:41:09;2.50;;;1.37;;
19179;SDS011;9722;48.754;8.868;2023-07-13T05:44:30;3.23;;;1.40;;
19179;SDS011;9722;48.754;8.868;2023-07-13T05:47:54;1.30;;;1.20;;
19179;SDS011;9722;48.754;8.868;2023-07-13T05:51:15;2.47;;;1.30;;
19179;SDS011;9722;48.754;8.868;2023-07-13T05:54:36;1.60;;;1.30;;
19179;SDS011;9722;48.754;8.868;2023-07-13T05:57:56;2.13;;;1.17;;
19179;SDS011;9722;48.754;8.868;2023-07-13T06:01:18;2.60;;;1.13;;
19179;SDS011;9722;48.754;8.868;2023-07-13T06:04:40;2.07;;;1.23;;
19179;SDS011;9722;48.754;8.868;2023-07-13T06:08:01;1.60;;;1.27;;
19179;SDS011;9722;48.754;8.868;2023-07-13T06:11:22;1.43;;;1.30;;
19179;SDS011;9722;48.754;8.868;2023-07-13T06:14:44;2.03;;;1.20;;
19179;SDS011;9722;48.754;8.868;2023-07-13T06:18:04;1.67;;;1.20;;
19179;SDS011;9722;48.754;8.868;2023-07-13T06:21:25;2.37;;;1.27;;
19179;SDS011;9722;48.754;8.868;2023-07-13T06:24:45;2.50;;;1.40;;
19179;SDS011;9722;48.754;8.868;2023-07-13T06:28:06;2.03;;;1.50;;
19179;SDS011;9722;48.754;8.868;2023-07-13T06:31:27;1.43;;;1.30;;
19179;SDS011;9722;48.754;8.868;2023-07-13T06:34:47;2.27;;;1.30;;
19179;SDS011;9722;48.754;8.868;2023-07-13T06:38:08;1.47;;;1.20;;
19179;SDS011;9722;48.754;8.868;2023-07-13T06:41:28;1.90;;;1.13;;
19179;SDS011;9722;48.754;8.868;2023-07-13T06:44:50;1.67;;;1.10;;
19179;SDS011;9722;48.754;8.868;2023-07-13T06:48:11;2.03;;;0.70;;
19179;SDS011;9722;48.754;8.868;2023-07-13T06:51:31;2.03;;;0.97;;
19179;SDS011;9722;48.754;8.868;2023-07-13T06:54:52;1.87;;;1.10;;
19179;SDS011;9722;48.754;8.868;2023-07-13T06:58:12;5.87;;;1.00;;
19179;SDS011;9722;48.754;8.868;2023-07-13T07:01:34;1.47;;;0.83;;
19179;SDS011;9722;48.754;8.868;2023-07-13T07:04:55;4.77;;;1.10;;
19179;SDS011;9722;48.754;8.868;2023-07-13T07:08:15;2.37;;;1.00;;
19179;SDS011;9722;48.754;8.868;2023-07-13T07:11:36;2.07;;;1.27;;
19179;SDS011;9722;48.754;8.868;2023-07-13T07:14:56;2.33;;;1.00;;
19179;SDS011;9722;48.754;8.868;2023-07-13T07:18:17;1.33;;;1.00;;
19179;SDS011;9722;48.754;8.868;2023-07-13T07:21:37;1.20;;;0.80;;
19179;SDS011;9722;48.754;8.868;2023-07-13T07:24:58;1.67;;;0.93;;
19179;SDS011;9722;48.754;8.868;2023-07-13T07:28:18;2.33;;;0.70;;
19179;SDS011;9722;48.754;8.868;2023-07-13T07:31:39;1.37;;;0.97;;
19179;SDS011;9722;48.754;8.868;2023-07-13T07:34:59;2.03;;;0.77;;
19179;SDS011;9722;48.754;8.868;2023-07-13T07:38:20;5.20;;;0.90;;
19179;SDS011;9722;48.754;8.868;2023-07-13T07:41:40;2.77;;;1.00;;
19179;SDS011;9722;48.754;8.868;2023-07-13T07:45:01;1.80;;;0.80;;
19179;SDS011;9722;48.754;8.868;2023-07-13T07:48:21;1.17;;;0.83;;
19179;SDS011;9722;48.754;8.868;2023-07-13T07:51:42;4.33;;;1.00;;
19179;SDS011;9722;48.754;8.868;2023-07-13T07:55:04;1.27;;;0.80;;
19179;SDS011;9722;48.754;8.868;2023-07-13T07:58:26;1.33;;;0.70;;
19179;SDS011;9722;48.754;8.868;2023-07-13T08:01:46;1.77;;;1.20;;
19179;SDS011;9722;48.754;8.868;2023-07-13T08:05:10;2.27;;;0.93;;
19179;SDS011;9722;48.754;8.868;2023-07-13T08:08:31;1.93;;;0.80;;
19179;SDS011;9722;48.754;8.868;2023-07-13T08:11:51;2.47;;;0.90;;
19179;SDS011;9722;48.754;8.868;2023-07-13T08:15:13;0.97;;;0.97;;
19179;SDS011;9722;48.754;8.868;2023-07-13T08:18:35;3.90;;;1.20;;
19179;SDS011;9722;48.754;8.868;2023-07-13T08:21:56;0.90;;;0.60;;
19179;SDS011;9722;48.754;8.868;2023-07-13T08:25:17;1.00;;;0.90;;
19179;SDS011;9722;48.754;8.868;2023-07-13T08:28:37;2.13;;;0.97;;
19179;SDS011;9722;48.754;8.868;2023-07-13T08:31:58;2.90;;;0.90;;
19179;SDS011;9722;48.754;8.868;2023-07-13T08:35:18;1.23;;;0.70;;
19179;SDS011;9722;48.754;8.868;2023-07-13T08:38:39;3.63;;;0.80;;
19179;SDS011;9722;48.754;8.868;2023-07-13T08:42:00;3.37;;;0.90;;
19179;SDS011;9722;48.754;8.868;2023-07-13T08:45:28;1.20;;;0.60;;
19179;SDS011;9722;48.754;8.868;2023-07-13T08:52:36;2.00;;;0.93;;
19179;SDS011;9722;48.754;8.868;2023-07-13T08:55:59;1.73;;;1.20;;
19179;SDS011;9722;48.754;8.868;2023-07-13T08:59:21;2.63;;;0.90;;
19179;SDS011;9722;48.754;8.868;2023-07-13T09:02:56;1.23;;;1.13;;
19179;SDS011;9722;48.754;8.868;2023-07-13T09:06:21;2.40;;;1.70;;
19179;SDS011;9722;48.754;8.868;2023-07-13T09:16:53;3.00;;;0.90;;
19179;SDS011;9722;48.754;8.868;2023-07-13T09:20:31;1.43;;;1.00;;
19179;SDS011;9722;48.754;8.868;2023-07-13T09:23:58;2.10;;;0.93;;
19179;SDS011;9722;48.754;8.868;2023-07-13T09:27:31;1.87;;;1.10;;
19179;SDS011;9722;48.754;8.868;2023-07-13T09:34:23;3.03;;;1.10;;
19179;SDS011;9722;48.754;8.868;2023-07-13T09:37:44;1.00;;;0.70;;
19179;SDS011;9722;48.754;8.868;2023-07-13T09:41:19;1.60;;;1.10;;
19179;SDS011;9722;48.754;8.868;2023-07-13T09:45:02;5.93;;;1.13;;
19179;SDS011;9722;48.754;8.868;2023-07-13T09:48:23;1.43;;;1.00;;
19179;SDS011;9722;48.754;8.868;2023-07-13T09:51:44;3.00;;;1.05;;
19179;SDS011;9722;48.754;8.868;2023-07-13T09:55:11;1.25;;;0.73;;
19179;SDS011;9722;48.754;8.868;2023-07-13T09:58:43;2.65;;;1.00;;
19179;SDS011;9722;48.754;8.868;2023-07-13T10:02:19;1.48;;;1.00;;
19179;SDS011;9722;48.754;8.868;2023-07-13T10:05:51;1.05;;;0.90;;
19179;SDS011;9722;48.754;8.868;2023-07-13T10:09:16;0.90;;;0.80;;
19179;SDS011;9722;48.754;8.868;2023-07-13T10:12:37;0.80;;;0.73;;
19179;SDS011;9722;48.754;8.868;2023-07-13T10:15:58;3.47;;;1.20;;
19179;SDS011;9722;48.754;8.868;2023-07-13T10:19:26;1.37;;;0.90;;
19179;SDS011;9722;48.754;8.868;2023-07-13T10:22:59;1.00;;;0.90;;
19179;SDS011;9722;48.754;8.868;2023-07-13T10:26:25;1.20;;;0.90;;
19179;SDS011;9722;48.754;8.868;2023-07-13T10:29:53;2.90;;;0.83;;
19179;SDS011;9722;48.754;8.868;2023-07-13T10:33:21;1.10;;;0.73;;
19179;SDS011;9722;48.754;8.868;2023-07-13T10:36:43;2.53;;;0.98;;
19179;SDS011;9722;48.754;8.868;2023-07-13T10:40:06;0.88;;;0.88;;
19179;SDS011;9722;48.754;8.868;2023-07-13T10:43:44;2.00;;;0.82;;
19179;SDS011;9722;48.754;8.868;2023-07-13T10:47:13;1.15;;;0.90;;
19179;SDS011;9722;48.754;8.868;2023-07-13T10:50:36;1.35;;;0.80;;
19179;SDS011;9722;48.754;8.868;2023-07-13T10:57:32;0.73;;;0.73;;
19179;SDS011;9722;48.754;8.868;2023-07-13T11:04:26;2.60;;;1.07;;
19179;SDS011;9722;48.754;8.868;2023-07-13T11:07:54;1.53;;;0.93;;
19179;SDS011;9722;48.754;8.868;2023-07-13T11:18:20;2.13;;;1.27;;
19179;SDS011;9722;48.754;8.868;2023-07-13T11:22:02;1.35;;;0.95;;
19179;SDS011;9722;48.754;8.868;2023-07-13T11:25:27;1.70;;;1.00;;
19179;SDS011;9722;48.754;8.868;2023-07-13T11:28:50;1.00;;;0.90;;
19179;SDS011;9722;48.754;8.868;2023-07-13T11:32:24;1.67;;;1.03;;
19179;SDS011;9722;48.754;8.868;2023-07-13T11:36:00;1.90;;;1.30;;
19179;SDS011;9722;48.754;8.868;2023-07-13T11:39:26;1.07;;;0.80;;
19179;SDS011;9722;48.754;8.868;2023-07-13T11:42:52;1.90;;;1.30;;
19179;SDS011;9722;48.754;8.868;2023-07-13T11:46:26;1.23;;;1.00;;
19179;SDS011;9722;48.754;8.868;2023-07-13T11:49:52;1.23;;;1.10;;
19179;SDS011;9722;48.754;8.868;2023-07-13T11:53:16;2.50;;;1.20;;
19179;SDS011;9722;48.754;8.868;2023-07-13T11:56:36;1.17;;;1.02;;
19179;SDS011;9722;48.754;8.868;2023-07-13T11:59:58;1.27;;;1.17;;
19179;SDS011;9722;48.754;8.868;2023-07-13T12:03:26;1.98;;;1.27;;
19179;SDS011;9722;48.754;8.868;2023-07-13T12:06:47;1.63;;;1.15;;
19179;SDS011;9722;48.754;8.868;2023-07-13T12:10:22;1.20;;;0.90;;
19179;SDS011;9722;48.754;8.868;2023-07-13T12:13:43;0.80;;;0.80;;
19179;SDS011;9722;48.754;8.868;2023-07-13T12:17:09;1.60;;;1.30;;
19179;SDS011;9722;48.754;8.868;2023-07-13T12:20:42;3.15;;;1.10;;
19179;SDS011;9722;48.754;8.868;2023-07-13T12:24:04;1.92;;;1.20;;
19179;SDS011;9722;48.754;8.868;2023-07-13T12:27:33;1.33;;;1.23;;
19179;SDS011;9722;48.754;8.868;2023-07-13T12:30:54;1.30;;;1.13;;
19179;SDS011;9722;48.754;8.868;2023-07-13T12:34:22;4.30;;;1.30;;
19179;SDS011;9722;48.754;8.868;2023-07-13T12:37:47;1.17;;;1.05;;
19179;SDS011;9722;48.754;8.868;2023-07-13T12:41:08;2.25;;;1.42;;
19179;SDS011;9722;48.754;8.868;2023-07-13T12:44:29;1.50;;;1.20;;
19179;SDS011;9722;48.754;8.868;2023-07-13T12:47:55;1.50;;;1.13;;
19179;SDS011;9722;48.754;8.868;2023-07-13T12:51:22;0.98;;;0.98;;
19179;SDS011;9722;48.754;8.868;2023-07-13T12:54:54;1.15;;;0.95;;
19179;SDS011;9722;48.754;8.868;2023-07-13T12:58:19;1.15;;;1.00;;
19179;SDS011;9722;48.754;8.868;2023-07-13T13:01:45;1.20;;;1.10;;
19179;SDS011;9722;48.754;8.868;2023-07-13T13:05:07;2.78;;;1.20;;
19179;SDS011;9722;48.754;8.868;2023-07-13T13:08:34;2.03;;;1.13;;
19179;SDS011;9722;48.754;8.868;2023-07-13T13:11:56;1.40;;;1.00;;
19179;SDS011;9722;48.754;8.868;2023-07-13T13:15:16;4.40;;;1.38;;
19179;SDS011;9722;48.754;8.868;2023-07-13T13:18:37;1.33;;;1.23;;
19179;SDS011;9722;48.754;8.868;2023-07-13T13:21:57;1.38;;;1.20;;
19179;SDS011;9722;48.754;8.868;2023-07-13T13:25:19;1.00;;;1.00;;
19179;SDS011;9722;48.754;8.868;2023-07-13T13:28:39;0.98;;;0.90;;
19179;SDS011;9722;48.754;8.868;2023-07-13T13:32:00;1.77;;;0.93;;
19179;SDS011;9722;48.754;8.868;2023-07-13T13:35:21;1.45;;;1.02;;
19179;SDS011;9722;48.754;8.868;2023-07-13T13:38:41;1.33;;;0.90;;
19179;SDS011;9722;48.754;8.868;2023-07-13T13:42:02;4.97;;;1.00;;
19179;SDS011;9722;48.754;8.868;2023-07-13T13:45:23;0.90;;;0.90;;
19179;SDS011;9722;48.754;8.868;2023-07-13T13:48:44;2.57;;;0.93;;
19179;SDS011;9722;48.754;8.868;2023-07-13T13:52:05;4.20;;;2.30;;
19179;SDS011;9722;48.754;8.868;2023-07-13T13:55:29;1.47;;;0.80;;
19179;SDS011;9722;48.754;8.868;2023-07-13T13:58:49;1.87;;;1.20;;
19179;SDS011;9722;48.754;8.868;2023-07-13T14:02:21;3.27;;;1.13;;
19179;SDS011;9722;48.754;8.868;2023-07-13T14:05:46;3.43;;;1.00;;
19179;SDS011;9722;48.754;8.868;2023-07-13T14:09:12;9.23;;;1.30;;
19179;SDS011;9722;48.754;8.868;2023-07-13T14:12:35;2.53;;;1.00;;
19179;SDS011;9722;48.754;8.868;2023-07-13T14:15:55;4.97;;;1.30;;
19179;SDS011;9722;48.754;8.868;2023-07-13T14:19:16;3.37;;;0.90;;
19179;SDS011;9722;48.754;8.868;2023-07-13T14:22:36;1.50;;;0.70;;
19179;SDS011;9722;48.754;8.868;2023-07-13T14:25:57;1.30;;;0.97;;
19179;SDS011;9722;48.754;8.868;2023-07-13T14:29:18;1.73;;;0.93;;
19179;SDS011;9722;48.754;8.868;2023-07-13T14:32:39;2.10;;;1.10;;
19179;SDS011;9722;48.754;8.868;2023-07-13T14:36:00;2.30;;;0.80;;
19179;SDS011;9722;48.754;8.868;2023-07-13T14:39:23;2.90;;;0.90;;
19179;SDS011;9722;48.754;8.868;2023-07-13T14:42:44;1.43;;;0.90;;
19179;SDS011;9722;48.754;8.868;2023-07-13T14:46:05;2.40;;;1.00;;
19179;SDS011;9722;48.754;8.868;2023-07-13T14:49:35;1.47;;;0.90;;
19179;SDS011;9722;48.754;8.868;2023-07-13T14:52:58;3.10;;;1.30;;
19179;SDS011;9722;48.754;8.868;2023-07-13T14:56:18;1.07;;;0.97;;
19179;SDS011;9722;48.754;8.868;2023-07-13T14:59:39;1.00;;;0.90;;
19179;SDS011;9722;48.754;8.868;2023-07-13T15:03:00;1.27;;;0.90;;
19179;SDS011;9722;48.754;8.868;2023-07-13T15:06:21;1.57;;;1.00;;
19179;SDS011;9722;48.754;8.868;2023-07-13T15:09:42;1.70;;;0.90;;
19179;SDS011;9722;48.754;8.868;2023-07-13T15:13:15;1.50;;;1.10;;
19179;SDS011;9722;48.754;8.868;2023-07-13T15:16:40;1.47;;;1.00;;
19179;SDS011;9722;48.754;8.868;2023-07-13T15:20:14;2.20;;;0.93;;
19179;SDS011;9722;48.754;8.868;2023-07-13T15:23:35;1.20;;;1.10;;
19179;SDS011;9722;48.754;8.868;2023-07-13T15:26:56;3.87;;;0.90;;
19179;SDS011;9722;48.754;8.868;2023-07-13T15:30:17;3.47;;;1.10;;
19179;SDS011;9722;48.754;8.868;2023-07-13T15:33:37;4.30;;;0.90;;
19179;SDS011;9722;48.754;8.868;2023-07-13T15:36:58;1.73;;;0.80;;
19179;SDS011;9722;48.754;8.868;2023-07-13T15:40:20;4.23;;;1.77;;
19179;SDS011;9722;48.754;8.868;2023-07-13T15:43:43;2.27;;;1.07;;
19179;SDS011;9722;48.754;8.868;2023-07-13T15:47:05;1.37;;;0.80;;
19179;SDS011;9722;48.754;8.868;2023-07-13T15:50:29;1.03;;;0.90;;
19179;SDS011;9722;48.754;8.868;2023-07-13T15:54:05;2.50;;;1.00;;
19179;SDS011;9722;48.754;8.868;2023-07-13T15:57:29;2.67;;;0.80;;
19179;SDS011;9722;48.754;8.868;2023-07-13T16:00:49;2.10;;;0.90;;
19179;SDS011;9722;48.754;8.868;2023-07-13T16:04:11;1.23;;;1.10;;
19179;SDS011;9722;48.754;8.868;2023-07-13T16:07:31;1.80;;;0.90;;
19179;SDS011;9722;48.754;8.868;2023-07-13T16:10:52;1.80;;;1.07;;
19179;SDS011;9722;48.754;8.868;2023-07-13T16:14:13;1.23;;;0.70;;
19179;SDS011;9722;48.754;8.868;2023-07-13T16:17:35;1.30;;;0.70;;
19179;SDS011;9722;48.754;8.868;2023-07-13T16:20:55;3.03;;;0.83;;
19179;SDS011;9722;48.754;8.868;2023-07-13T16:24:19;1.17;;;0.90;;
19179;SDS011;9722;48.754;8.868;2023-07-13T16:27:41;2.10;;;0.83;;
19179;SDS011;9722;48.754;8.868;2023-07-13T16:31:03;2.13;;;1.10;;
19179;SDS011;9722;48.754;8.868;2023-07-13T16:34:25;0.83;;;0.67;;
19179;SDS011;9722;48.754;8.868;2023-07-13T16:37:45;1.50;;;0.93;;
19179;SDS011;9722;48.754;8.868;2023-07-13T16:41:06;2.93;;;0.90;;
19179;SDS011;9722;48.754;8.868;2023-07-13T16:44:29;1.93;;;1.00;;
19179;SDS011;9722;48.754;8.868;2023-07-13T16:47:51;1.83;;;0.80;;
19179;SDS011;9722;48.754;8.868;2023-07-13T16:51:13;2.87;;;1.00;;
19179;SDS011;9722;48.754;8.868;2023-07-13T16:54:35;1.60;;;0.70;;
19179;SDS011;9722;48.754;8.868;2023-07-13T16:57:58;1.93;;;1.40;;
19179;SDS011;9722;48.754;8.868;2023-07-13T17:01:22;1.90;;;1.03;;
19179;SDS011;9722;48.754;8.868;2023-07-13T17:04:43;1.23;;;1.03;;
19179;SDS011;9722;48.754;8.868;2023-07-13T17:11:35;1.67;;;0.90;;
19179;SDS011;9722;48.754;8.868;2023-07-13T17:15:00;2.40;;;1.30;;
19179;SDS011;9722;48.754;8.868;2023-07-13T17:18:25;1.33;;;1.10;;
19179;SDS011;9722;48.754;8.868;2023-07-13T17:21:47;1.90;;;1.07;;
19179;SDS011;9722;48.754;8.868;2023-07-13T17:25:10;3.17;;;0.90;;
19179;SDS011;9722;48.754;8.868;2023-07-13T17:28:32;2.63;;;1.07;;
19179;SDS011;9722;48.754;8.868;2023-07-13T17:31:53;1.30;;;0.90;;
19179;SDS011;9722;48.754;8.868;2023-07-13T17:38:41;1.20;;;1.00;;
19179;SDS011;9722;48.754;8.868;2023-07-13T17:42:06;1.87;;;1.00;;
19179;SDS011;9722;48.754;8.868;2023-07-13T17:45:30;1.73;;;0.90;;
19179;SDS011;9722;48.754;8.868;2023-07-13T17:48:51;1.20;;;0.90;;
19179;SDS011;9722;48.754;8.868;2023-07-13T17:52:13;1.80;;;1.10;;
19179;SDS011;9722;48.754;8.868;2023-07-13T17:55:34;2.63;;;1.20;;
19179;SDS011;9722;48.754;8.868;2023-07-13T17:58:54;4.50;;;1.10;;
19179;SDS011;9722;48.754;8.868;2023-07-13T18:02:18;1.27;;;0.90;;
19179;SDS011;9722;48.754;8.868;2023-07-13T18:05:41;2.00;;;0.93;;
19179;SDS011;9722;48.754;8.868;2023-07-13T18:09:03;1.37;;;0.90;;
19179;SDS011;9722;48.754;8.868;2023-07-13T18:12:43;2.13;;;0.90;;
19179;SDS011;9722;48.754;8.868;2023-07-13T18:16:03;2.10;;;0.97;;
19179;SDS011;9722;48.754;8.868;2023-07-13T18:19:25;3.93;;;1.10;;
19179;SDS011;9722;48.754;8.868;2023-07-13T18:22:51;1.07;;;0.97;;
19179;SDS011;9722;48.754;8.868;2023-07-13T18:26:14;1.60;;;1.03;;
19179;SDS011;9722;48.754;8.868;2023-07-13T18:29:37;2.13;;;1.63;;
19179;SDS011;9722;48.754;8.868;2023-07-13T18:32:57;1.87;;;0.90;;
19179;SDS011;9722;48.754;8.868;2023-07-13T18:36:18;3.00;;;0.97;;
19179;SDS011;9722;48.754;8.868;2023-07-13T18:39:40;2.83;;;1.10;;
19179;SDS011;9722;48.754;8.868;2023-07-13T18:43:02;1.10;;;1.00;;
19179;SDS011;9722;48.754;8.868;2023-07-13T18:46:23;1.87;;;1.20;;
19179;SDS011;9722;48.754;8.868;2023-07-13T18:49:51;2.00;;;0.97;;
19179;SDS011;9722;48.754;8.868;2023-07-13T18:53:15;1.17;;;0.87;;
19179;SDS011;9722;48.754;8.868;2023-07-13T18:56:37;1.83;;;1.00;;
19179;SDS011;9722;48.754;8.868;2023-07-13T18:59:58;3.30;;;1.30;;
19179;SDS011;9722;48.754;8.868;2023-07-13T19:03:19;0.97;;;0.90;;
19179;SDS011;9722;48.754;8.868;2023-07-13T19:06:42;2.90;;;0.80;;
19179;SDS011;9722;48.754;8.868;2023-07-13T19:10:03;1.10;;;0.90;;
19179;SDS011;9722;48.754;8.868;2023-07-13T19:13:25;3.93;;;0.87;;
19179;SDS011;9722;48.754;8.868;2023-07-13T19:16:47;1.00;;;0.90;;
19179;SDS011;9722;48.754;8.868;2023-07-13T19:20:11;1.63;;;1.00;;
19179;SDS011;9722;48.754;8.868;2023-07-13T19:23:38;1.20;;;1.10;;
19179;SDS011;9722;48.754;8.868;2023-07-13T19:27:02;1.37;;;1.27;;
19179;SDS011;9722;48.754;8.868;2023-07-13T19:30:23;2.07;;;1.30;;
19179;SDS011;9722;48.754;8.868;2023-07-13T19:33:43;2.53;;;1.20;;
19179;SDS011;9722;48.754;8.868;2023-07-13T19:37:25;1.60;;;1.30;;
19179;SDS011;9722;48.754;8.868;2023-07-13T19:40:44;2.40;;;1.20;;
19179;SDS011;9722;48.754;8.868;2023-07-13T19:44:05;1.53;;;1.43;;
19179;SDS011;9722;48.754;8.868;2023-07-13T19:47:29;1.40;;;1.30;;
19179;SDS011;9722;48.754;8.868;2023-07-13T19:50:49;2.97;;;2.03;;
19179;SDS011;9722;48.754;8.868;2023-07-13T19:54:11;3.63;;;1.53;;
19179;SDS011;9722;48.754;8.868;2023-07-13T19:57:33;1.70;;;1.60;;
19179;SDS011;9722;48.754;8.868;2023-07-13T20:00:53;3.37;;;2.60;;
19179;SDS011;9722;48.754;8.868;2023-07-13T20:04:16;1.97;;;1.73;;
19179;SDS011;9722;48.754;8.868;2023-07-13T20:07:37;2.43;;;1.80;;
19179;SDS011;9722;48.754;8.868;2023-07-13T20:10:57;3.40;;;2.53;;
19179;SDS011;9722;48.754;8.868;2023-07-13T20:14:22;3.40;;;3.10;;
19179;SDS011;9722;48.754;8.868;2023-07-13T20:17:44;4.57;;;3.40;;
19179;SDS011;9722;48.754;8.868;2023-07-13T20:21:09;4.37;;;3.97;;
19179;SDS011;9722;48.754;8.868;2023-07-13T20:24:33;3.93;;;3.63;;
19179;SDS011;9722;48.754;8.868;2023-07-13T20:27:54;4.67;;;4.17;;
19179;SDS011;9722;48.754;8.868;2023-07-13T20:31:15;3.87;;;3.30;;
19179;SDS011;9722;48.754;8.868;2023-07-13T20:34:37;6.20;;;3.90;;
19179;SDS011;9722;48.754;8.868;2023-07-13T20:37:59;4.07;;;3.60;;
19179;SDS011;9722;48.754;8.868;2023-07-13T20:41:21;4.70;;;3.20;;
19179;SDS011;9722;48.754;8.868;2023-07-13T20:44:41;3.20;;;2.90;;
19179;SDS011;9722;48.754;8.868;2023-07-13T20:48:16;3.83;;;3.20;;
19179;SDS011;9722;48.754;8.868;2023-07-13T20:51:43;4.40;;;3.00;;
19179;SDS011;9722;48.754;8.868;2023-07-13T20:55:17;4.57;;;2.93;;
19179;SDS011;9722;48.754;8.868;2023-07-13T20:58:40;3.00;;;2.80;;
19179;SDS011;9722;48.754;8.868;2023-07-13T21:02:01;3.40;;;3.10;;
19179;SDS011;9722;48.754;8.868;2023-07-13T21:05:22;4.03;;;3.07;;
19179;SDS011;9722;48.754;8.868;2023-07-13T21:08:44;3.70;;;2.97;;
19179;SDS011;9722;48.754;8.868;2023-07-13T21:12:06;2.60;;;2.40;;
19179;SDS011;9722;48.754;8.868;2023-07-13T21:15:27;2.43;;;2.20;;
19179;SDS011;9722;48.754;8.868;2023-07-13T21:18:51;2.03;;;1.50;;